• Join FlightAware (Why Join?)
  • Login
  • US Flag 
Gobble Gobble! 
12:41PM EST


 

Airport Tracker/Info


-or-


 

Live Flight TrackerFlight Track Log ✈ N102WY ✈ 31-Oct-2013 ✈ KJAC - KCYS

Flight Track Log - Related Links

Times and Time Zones

All times are in EDT time to prevent confusion due to time zone crossing. See the N102WY flight status page for this flight to view local times or setup timezone preferences in your user account.

Time Position Orientation Groundspeed Altitude Reporting Facility
EDT Latitude Longitude Course Direction KTS MPH feet Rate Location/Type
03:02PM 43.5072 -110.8039 207° Southwest 248 285 12,500  Level Salt Lake Center
03:03PM 43.4261 -110.7900 173° South 327 376 16,200 3,720 Climbing Salt Lake Center
03:04PM 43.3750 -110.6717 121° Southeast 348 400 20,300 3,480 Climbing Salt Lake Center
03:05PM 43.3430 -110.0369 135° Southeast  Level Estimated
03:05PM 43.3322 -110.5381 114° Southeast 360 414 23,500  Level Salt Lake Center
03:06PM 43.2985 -109.9207 136° Southeast  Level Estimated
03:06PM 43.2819 -110.3869 115° Southeast 388 447 26,800  Level Salt Lake Center
03:07PM 43.2361 -110.2542 115° Southeast 382 440 29,400 2,160 Climbing Salt Lake Center
03:08PM 43.1908 -110.1261 116° Southeast 389 448 31,300 2,040 Climbing Salt Lake Center
03:09PM 43.1381 -109.9761 116° Southeast 392 451 33,600 1,740 Climbing Salt Lake Center
03:10PM 43.0950 -109.8519 115° Southeast 388 447 34,900 660 Climbing Salt Lake Center
03:11PM 43.0447 -109.7097 116° Southeast 412 474 35,000 780 Climbing Salt Lake Center
03:12PM 42.9911 -109.5592 116° Southeast 437 503 36,500 960 Climbing Salt Lake Center
03:13PM 42.9303 -109.3847 115° Southeast 434 499 37,000 240 Climbing Salt Lake Center
03:14PM 42.8797 -109.2428 116° Southeast 436 502 37,000  Level Salt Lake Center
03:15PM 42.8289 -109.1044 117° Southeast 429 494 37,000  Level Salt Lake Center
03:16PM 42.7706 -108.9447 116° Southeast 423 487 37,000  Level Salt Lake Center
03:17PM 42.7208 -108.8075 116° Southeast 423 487 37,000  Level Salt Lake Center
03:18PM 42.6619 -108.6464 116° Southeast 425 489 37,000  Level Salt Lake Center
03:19PM 42.6122 -108.5086 116° Southeast 425 489 37,000 -480 Level Salt Lake Center
03:20PM 42.5517 -108.3456 117° Southeast 431 496 36,100 -900 Descending Salt Lake Center
03:21PM 42.4978 -108.1981 116° Southeast 447 514 35,200 -960 Descending Salt Lake Center
03:22PM 42.4406 -108.0492 117° Southeast 458 527 34,200 -1,020 Descending Salt Lake Center
03:23PM 42.3764 -107.8764 117° Southeast 459 528 33,100 -600 Descending Salt Lake Center
03:24PM 42.3211 -107.7317 117° Southeast 454 522 33,000 -60 Descending Salt Lake Center
03:25PM 42.2594 -107.5664 117° Southeast 442 509 33,000  Level Salt Lake Center
03:26PM 42.2333 -107.4961 117° Southeast 436 502 33,000  Level Denver Center
03:27PM 42.1822 -107.3569 116° Southeast 433 498 33,000  Level Denver Center
03:28PM 42.1208 -107.1958 117° Southeast 432 497 33,000  Level Denver Center
03:29PM 42.0689 -107.0567 117° Southeast 434 499 33,000  Level Denver Center
03:30PM 42.0069 -106.8953 117° Southeast 435 501 33,000  Level Denver Center
03:31PM 41.9544 -106.7553 117° Southeast 437 503 33,000  Level Denver Center
03:32PM 41.9006 -106.6158 117° Southeast 439 505 33,000  Level Denver Center
03:33PM 41.8431 -106.4647 117° Southeast 434 499 33,000  Level Denver Center
03:34PM 41.7800 -106.3058 118° Southeast 434 499 33,000 -240 Level Denver Center
03:35PM 41.7275 -106.1692 117° Southeast 434 499 32,600 -720 Descending Denver Center
03:36PM 41.6653 -106.0119 118° Southeast 431 496 31,600 -1,020 Descending Denver Center
03:37PM 41.6142 -105.8803 117° Southeast 422 486 30,600 -1,500 Descending Denver Center
03:38PM 41.5561 -105.7328 118° Southeast 407 468 28,500 -2,400 Descending Denver Center
03:39PM 41.5075 -105.6089 118° Southeast 398 458 25,800 -2,880 Descending Denver Center
03:40PM 41.4522 -105.4722 118° Southeast 381 438 22,700 -2,760 Descending Denver Center
03:41PM 41.4078 -105.3622 118° Southeast 363 418 20,100 -2,580 Descending Denver Center
03:42PM 41.3581 -105.2378 118° Southeast 347 399 17,400 -2,460 Descending Denver Center
03:43PM 41.3172 -105.1372 118° Southeast 334 384 15,100 -2,340 Descending Denver Center
03:44PM 41.2725 -105.0261 118° Southeast 318 366 12,700 -2,160 Descending Denver Center
03:45PM 41.2364 -104.9364 118° Southeast 300 345 10,700 -1,800 Descending Denver Center
03:46PM 41.2147 -104.8497 108° East 274 315 9,000 -1,680 Descending Denver Center
03:48PM 41.1556 -104.8105 116° Southeast  Level Estimated
03:55PM 41.1556 -104.8105 116° Southeast  Level Estimated
03:56PM 41.1556 -104.8105 116° Southeast  Level Estimated
03:57PM 41.1556 -104.8105 116° Southeast  Level Estimated